Time;durP1;ratioP1;P1;durP2;ratioP2;P2;SDS_P1;SDS_P2;PMS_P1;PMS_P2;Temp;Humidity;BMP_temperature;BMP_pressure;BME280_temperature;BME280_humidity;BME280_pressure;Samples;Min_cycle;Max_cycle;Signal;HPM_P1;HPM_P2
2022/01/18 00:01:03;;;;;;;6.47;5.27;;;;;;;5.03;76.69;97195.53;4975013;28;20211;-85
2022/01/18 00:03:29;;;;;;;5.73;5.13;;;;;;;5.04;76.85;97199.72;4974354;28;20602;-86
2022/01/18 00:05:56;;;;;;;6.30;5.70;;;;;;;5.14;76.38;97205.84;4974168;28;20224;-85
2022/01/18 00:08:22;;;;;;;5.57;5.07;;;;;;;5.13;76.33;97209.31;4974309;28;20595;-85
2022/01/18 00:10:49;;;;;;;6.10;5.30;;;;;;;5.11;76.88;97203.50;4973874;28;20593;-85
2022/01/18 00:13:37;;;;;;;6.33;5.73;;;;;;;5.20;76.69;97207.16;4975491;28;20224;-86
2022/01/18 00:16:22;;;;;;;7.27;5.87;;;;;;;5.28;76.09;97199.81;4974617;28;20263;-84
2022/01/18 00:18:50;;;;;;;5.97;5.37;;;;;;;5.17;76.89;97212.50;4974282;28;20248;-85
2022/01/18 00:21:25;;;;;;;6.07;5.13;;;;;;;5.09;77.68;97213.00;4975160;28;20204;-86
2022/01/18 00:23:55;;;;;;;5.70;4.90;;;;;;;5.20;76.99;97209.69;4975618;28;20783;-85
2022/01/18 00:26:23;;;;;;;5.97;5.40;;;;;;;5.27;76.71;97215.22;4974303;28;20828;-85
2022/01/18 00:28:54;;;;;;;7.07;6.10;;;;;;;5.25;77.25;97215.31;4974359;28;20307;-85
2022/01/18 00:34:17;;;;;;;7.13;6.20;;;;;;;5.14;78.21;97222.91;4964012;28;20219;-85
2022/01/18 00:36:57;;;;;;;6.63;5.87;;;;;;;5.12;78.84;97227.28;4973397;28;20228;-84
2022/01/18 00:39:23;;;;;;;6.13;5.50;;;;;;;5.15;78.87;97225.34;4974130;28;20204;-85
2022/01/18 00:41:50;;;;;;;6.60;5.90;;;;;;;5.15;79.10;97227.91;4973909;28;20200;-85
2022/01/18 00:44:16;;;;;;;6.40;5.80;;;;;;;5.15;79.45;97238.13;4974448;28;20207;-85
2022/01/18 00:46:45;;;;;;;6.60;5.90;;;;;;;5.22;79.24;97241.88;4973680;28;20227;-86
2022/01/18 00:49:13;;;;;;;7.00;6.10;;;;;;;5.22;79.87;97249.53;4974915;28;20200;-83
2022/01/18 00:51:41;;;;;;;7.20;6.50;;;;;;;5.16;80.46;97242.31;4974705;28;20196;-84
2022/01/18 00:54:10;;;;;;;7.13;6.43;;;;;;;5.25;79.79;97245.97;4974167;28;20233;-84
2022/01/18 00:56:40;;;;;;;7.07;5.93;;;;;;;5.25;80.33;97251.06;4973625;28;20228;-83
2022/01/18 00:59:07;;;;;;;7.07;6.20;;;;;;;5.16;81.24;97260.19;4975007;28;20259;-86
2022/01/18 01:01:36;;;;;;;7.40;6.33;;;;;;;5.15;81.63;97266.22;4974896;28;20200;-85
2022/01/18 01:04:04;;;;;;;7.97;6.30;;;;;;;5.17;81.68;97276.31;4974509;28;20204;-85
2022/01/18 01:06:32;;;;;;;6.80;6.10;;;;;;;5.26;81.30;97270.59;4973047;28;20232;-86
2022/01/18 01:08:59;;;;;;;7.50;6.73;;;;;;;5.30;81.11;97266.09;4974961;28;20208;-85
2022/01/18 01:11:26;;;;;;;9.00;6.73;;;;;;;5.26;82.18;97272.31;4974419;28;20717;-85
2022/01/18 01:13:55;;;;;;;7.83;6.77;;;;;;;5.28;82.09;97270.50;4974080;28;20287;-84
2022/01/18 01:19:23;;;;;;;7.60;6.67;;;;;;;5.32;81.75;97279.59;4969554;28;20192;-85
2022/01/18 01:33:18;;;;;;;8.17;6.63;;;;;;;5.35;82.43;97305.75;4974225;28;20206;-83
2022/01/18 01:36:04;;;;;;;7.63;6.60;;;;;;;5.35;82.67;97310.84;4972993;28;20316;-82
2022/01/18 01:44:07;;;;;;;7.57;6.77;;;;;;;5.43;82.04;97308.59;4974179;28;20307;-85
2022/01/18 01:46:35;;;;;;;7.00;6.30;;;;;;;5.48;81.97;97309.09;4973323;28;20230;-85
2022/01/18 01:49:05;;;;;;;8.80;6.83;;;;;;;5.45;81.82;97298.28;4973427;28;20684;-85
2022/01/18 01:51:33;;;;;;;7.13;6.43;;;;;;;5.35;82.68;97305.75;4974185;28;20193;-85
2022/01/18 01:54:01;;;;;;;7.17;6.47;;;;;;;5.39;82.22;97298.66;4974046;28;20205;-85
2022/01/18 01:56:29;;;;;;;6.83;6.13;;;;;;;5.42;81.93;97306.13;4973073;28;20225;-85
2022/01/18 01:58:56;;;;;;;7.37;6.53;;;;;;;5.32;82.21;97298.28;4973483;28;20200;-87
2022/01/18 02:01:23;;;;;;;7.33;6.40;;;;;;;5.35;82.17;97298.09;4973488;28;20208;-83
2022/01/18 02:03:50;;;;;;;7.60;6.40;;;;;;;5.32;82.68;97298.28;4974016;28;20204;-85
2022/01/18 02:06:17;;;;;;;8.50;7.00;;;;;;;5.36;82.31;97284.41;4972996;28;20600;-85
2022/01/18 02:08:45;;;;;;;7.77;6.90;;;;;;;5.37;82.70;97280.09;4973674;28;20298;-85
2022/01/18 02:11:12;;;;;;;7.00;6.30;;;;;;;5.41;81.73;97279.78;4974553;28;20212;-85
2022/01/18 02:13:39;;;;;;;7.67;6.83;;;;;;;5.35;82.69;97275.09;4973498;28;20285;-85
2022/01/18 02:16:15;;;;;;;7.43;6.40;;;;;;;5.31;82.87;97273.66;4973889;28;20635;-86
2022/01/18 02:21:46;;;;;;;7.53;6.73;;;;;;;5.26;84.06;97283.34;4973466;28;20282;-85
2022/01/18 02:24:13;;;;;;;8.13;6.93;;;;;;;5.24;83.96;97271.59;4973783;28;20805;-84
2022/01/18 02:26:40;;;;;;;8.20;7.07;;;;;;;5.24;84.20;97269.88;4975356;28;20242;-85
2022/01/18 02:29:09;;;;;;;7.40;6.70;;;;;;;5.33;83.54;97271.00;4977788;28;20200;-85
2022/01/18 02:31:37;;;;;;;8.17;7.33;;;;;;;5.28;84.11;97260.28;4977935;28;20561;-84
2022/01/18 02:34:04;;;;;;;9.47;7.60;;;;;;;5.29;84.02;97254.25;4976849;28;20207;-84
2022/01/18 02:36:33;;;;;;;8.43;7.03;;;;;;;5.20;84.58;97253.13;4976322;28;20228;-86
2022/01/18 02:38:59;;;;;;;8.37;7.47;;;;;;;5.27;84.48;97256.09;4977021;28;20200;-86
2022/01/18 02:41:30;;;;;;;8.33;7.53;;;;;;;5.28;84.71;97248.31;4977250;28;20212;-85
2022/01/18 02:43:57;;;;;;;8.07;7.23;;;;;;;5.31;84.57;97257.53;4977492;28;20271;-85
2022/01/18 02:46:25;;;;;;;8.03;7.17;;;;;;;5.33;84.05;97265.91;4976642;28;20660;-85
2022/01/18 02:48:51;;;;;;;8.20;7.40;;;;;;;5.29;84.47;97257.63;4976310;28;20255;-83
2022/01/18 02:51:17;;;;;;;8.97;7.30;;;;;;;5.30;84.13;97264.38;4976864;28;20207;-86
2022/01/18 02:53:57;;;;;;;8.40;7.50;;;;;;;5.25;84.59;97245.97;4976922;28;20200;-84
2022/01/18 02:56:25;;;;;;;9.20;7.60;;;;;;;5.29;84.03;97261.91;4975986;28;20231;-85
2022/01/18 02:58:57;;;;;;;9.03;7.53;;;;;;;5.34;84.02;97273.47;4976409;28;20216;-85
2022/01/18 03:04:08;;;;;;;8.37;7.47;;;;;;;5.37;84.08;97275.81;4976727;28;20203;-83
2022/01/18 03:06:35;;;;;;;8.17;7.33;;;;;;;5.40;83.79;97277.31;4975981;28;20231;-86
2022/01/18 03:09:02;;;;;;;9.13;7.40;;;;;;;5.37;84.09;97275.00;4976795;28;20808;-85
2022/01/18 03:11:29;;;;;;;9.13;7.97;;;;;;;5.32;84.03;97277.03;4977125;28;20576;-85
2022/01/18 03:13:55;;;;;;;9.00;8.10;;;;;;;5.35;84.17;97280.19;4976982;28;20584;-85
2022/01/18 03:16:22;;;;;;;9.10;7.83;;;;;;;5.36;83.64;97289.50;4976874;28;20235;-86
2022/01/18 03:18:48;;;;;;;8.77;7.87;;;;;;;5.36;83.59;97293.78;4976583;28;20219;-83
2022/01/18 03:21:14;;;;;;;9.50;7.80;;;;;;;5.29;84.42;97295.09;4976482;28;20196;-84
2022/01/18 03:23:41;;;;;;;8.93;7.80;;;;;;;5.32;84.58;97288.06;4976156;28;20204;-83
2022/01/18 03:26:15;;;;;;;8.67;7.67;;;;;;;5.37;84.44;97280.91;4975766;28;20228;-84
2022/01/18 03:28:41;;;;;;;9.27;7.63;;;;;;;5.38;84.15;97282.56;4976104;28;20234;-85
2022/01/18 03:31:07;;;;;;;9.13;8.17;;;;;;;5.36;83.43;97284.41;4976416;28;20208;-82
2022/01/18 03:33:34;;;;;;;9.50;8.10;;;;;;;5.36;83.68;97286.13;4975808;28;20211;-84
2022/01/18 03:36:01;;;;;;;9.73;8.10;;;;;;;5.27;84.35;97294.38;4975807;28;20746;-84
2022/01/18 03:38:29;;;;;;;9.60;8.60;;;;;;;5.26;84.37;97296.13;4975311;28;20216;-85
2022/01/18 03:40:56;;;;;;;8.37;7.47;;;;;;;5.31;84.20;97295.81;4976669;28;20204;-85
2022/01/18 03:43:24;;;;;;;9.97;8.40;;;;;;;5.38;83.33;97289.41;4976349;28;20855;-85
2022/01/18 03:45:54;;;;;;;9.67;8.23;;;;;;;5.41;83.28;97294.28;4975767;28;20608;-85
2022/01/18 03:48:28;;;;;;;9.30;8.40;;;;;;;5.37;83.90;97286.03;4976117;28;20216;-86
2022/01/18 03:50:55;;;;;;;11.73;8.60;;;;;;;5.36;84.08;97291.25;4976019;28;20255;-85
2022/01/18 03:53:22;;;;;;;9.07;8.17;;;;;;;5.36;84.30;97291.25;4976950;28;20214;-85
2022/01/18 03:55:49;;;;;;;9.23;8.33;;;;;;;5.35;84.46;97290.41;4974893;28;20331;-85
2022/01/18 03:58:15;;;;;;;9.73;8.63;;;;;;;5.28;84.67;97296.84;4975729;28;20223;-84
2022/01/18 04:00:43;;;;;;;9.33;8.00;;;;;;;5.23;85.43;97293.78;4977260;28;20208;-85
2022/01/18 04:03:10;;;;;;;10.40;8.80;;;;;;;5.32;84.65;97303.38;4976821;28;20226;-85
2022/01/18 04:05:36;;;;;;;10.20;8.63;;;;;;;5.37;84.36;97301.34;4975409;28;20251;-86
2022/01/18 04:08:03;;;;;;;9.23;8.07;;;;;;;5.31;84.52;97300.94;4975387;28;20239;-86
2022/01/18 04:10:29;;;;;;;11.37;8.63;;;;;;;5.36;84.10;97297.16;4975667;28;20802;-85
2022/01/18 04:12:56;;;;;;;10.50;8.77;;;;;;;5.31;85.23;97299.19;4975663;28;20208;-84
2022/01/18 04:15:24;;;;;;;9.40;8.43;;;;;;;5.32;85.17;97298.28;4975435;28;20228;-84
2022/01/18 04:18:11;;;;;;;10.07;8.97;;;;;;;5.28;84.90;97301.94;4975485;28;20228;-85
2022/01/18 04:26:54;;;;;;;10.30;8.73;;;;;;;5.37;84.13;97315.88;4974423;28;20626;-82
2022/01/18 04:28:53;;;;;;;9.23;8.33;;;;;;;5.42;83.46;97311.25;4974291;28;20312;-84
2022/01/18 04:31:20;;;;;;;12.70;9.53;;;;;;;5.43;83.19;97320.53;4975477;28;20208;-81
2022/01/18 04:33:48;;;;;;;9.93;8.60;;;;;;;5.45;83.51;97322.09;4975659;28;20701;-86
2022/01/18 04:36:15;;;;;;;10.60;8.63;;;;;;;5.45;82.91;97337.41;4974670;28;20243;-85
2022/01/18 04:38:42;;;;;;;10.70;9.10;;;;;;;5.40;83.03;97323.28;4975600;28;20349;-85
2022/01/18 04:41:12;;;;;;;10.07;8.83;;;;;;;5.40;83.05;97339.44;4975255;28;20200;-86
2022/01/18 04:43:49;;;;;;;9.83;8.77;;;;;;;5.43;83.36;97325.66;4975600;28;20215;-86
2022/01/18 04:49:01;;;;;;;9.93;8.43;;;;;;;5.41;83.21;97330.84;4974860;28;20259;-85
2022/01/18 04:51:28;;;;;;;10.17;8.60;;;;;;;5.44;82.95;97342.63;4974230;28;20211;-85
2022/01/18 04:53:57;;;;;;;10.03;8.73;;;;;;;5.44;82.84;97346.00;4974908;28;20207;-85
2022/01/18 04:57:51;;;;;;;9.37;7.97;;;;;;;5.46;82.74;97346.72;4974233;28;20232;-84
2022/01/18 04:59:17;;;;;;;10.90;8.90;;;;;;;5.47;82.47;97350.91;4974608;28;20200;-84
2022/01/18 05:01:46;;;;;;;10.97;8.17;;;;;;;5.47;82.54;97345.78;4974601;28;20196;-83
2022/01/18 05:04:14;;;;;;;9.83;8.83;;;;;;;5.44;82.35;97337.50;4974626;28;20204;-86
2022/01/18 05:06:42;;;;;;;10.33;8.83;;;;;;;5.48;82.35;97333.84;4973290;28;20255;-84
2022/01/18 05:09:10;;;;;;;12.50;9.30;;;;;;;5.47;82.65;97337.31;4974421;28;20275;-86
2022/01/18 05:11:45;;;;;;;11.93;8.60;;;;;;;5.43;82.92;97333.31;4974500;28;20196;-85
2022/01/18 05:14:21;;;;;;;10.10;8.60;;;;;;;5.40;82.96;97336.88;4974317;28;20263;-86
2022/01/18 05:16:55;;;;;;;11.30;8.77;;;;;;;5.41;82.51;97330.84;4973422;28;20231;-82
2022/01/18 05:19:28;;;;;;;10.53;9.03;;;;;;;5.35;82.36;97326.19;4972492;28;20612;-86
2022/01/18 05:24:37;;;;;;;10.17;8.73;;;;;;;5.38;81.73;97330.28;4945499;28;20202;-83
2022/01/18 05:27:05;;;;;;;11.23;8.97;;;;;;;5.40;81.34;97326.66;4973998;28;20235;-85
2022/01/18 05:29:31;;;;;;;10.87;9.13;;;;;;;5.39;81.16;97326.78;4974318;28;20212;-86
2022/01/18 05:31:58;;;;;;;10.27;8.97;;;;;;;5.36;80.73;97340.59;4974011;28;20207;-86
2022/01/18 05:34:26;;;;;;;9.63;8.00;;;;;;;5.34;80.73;97337.31;4974789;28;20211;-81
2022/01/18 05:36:52;;;;;;;9.90;8.50;;;;;;;5.34;80.38;97341.59;4973439;28;20258;-84
2022/01/18 05:39:19;;;;;;;9.77;8.43;;;;;;;5.31;80.46;97336.69;4973827;28;20200;-84
2022/01/18 05:41:46;;;;;;;9.63;8.10;;;;;;;5.27;80.77;97330.97;4973445;28;20200;-82
2022/01/18 05:44:12;;;;;;;12.00;8.80;;;;;;;5.22;80.46;97328.69;4965509;28;20212;-85
2022/01/18 05:46:39;;;;;;;11.13;8.23;;;;;;;5.17;81.05;97337.59;4963243;28;20227;-84
2022/01/18 05:49:06;;;;;;;10.27;8.63;;;;;;;5.18;80.96;97346.91;4965499;28;20205;-85
2022/01/18 05:51:36;;;;;;;10.50;8.63;;;;;;;5.22;80.65;97335.53;4965224;28;20228;-83
2022/01/18 05:54:04;;;;;;;13.13;9.67;;;;;;;5.20;80.85;97338.19;4968733;28;20235;-82
2022/01/18 05:56:30;;;;;;;12.17;9.17;;;;;;;5.16;81.32;97341.06;4970856;28;20224;-83
2022/01/18 05:59:01;;;;;;;10.73;9.33;;;;;;;5.18;80.92;97344.34;4972314;28;20200;-82
2022/01/18 06:01:33;;;;;;;12.10;9.17;;;;;;;5.20;80.81;97345.84;4969013;28;20204;-83
2022/01/18 06:04:11;;;;;;;11.73;8.97;;;;;;;5.22;80.15;97349.13;4968097;28;20340;-84
2022/01/18 06:06:55;;;;;;;11.00;9.07;;;;;;;5.26;80.56;97348.94;4971198;28;20255;-86
2022/01/18 06:09:23;;;;;;;12.23;9.47;;;;;;;5.22;79.95;97355.97;4971022;28;20298;-84
2022/01/18 06:11:51;;;;;;;10.93;9.27;;;;;;;5.15;80.36;97355.56;4971297;28;20204;-82
2022/01/18 06:14:18;;;;;;;13.57;9.33;;;;;;;5.12;80.32;97354.94;4972352;28;20363;-85
2022/01/18 06:16:44;;;;;;;11.27;9.40;;;;;;;5.08;80.81;97356.88;4963180;28;20231;-84
2022/01/18 06:19:11;;;;;;;10.97;9.20;;;;;;;5.03;80.73;97358.91;4971469;28;20224;-85
2022/01/18 06:21:40;;;;;;;13.27;9.03;;;;;;;5.03;80.74;97361.44;4971061;28;20212;-85
2022/01/18 06:24:09;;;;;;;10.67;9.10;;;;;;;4.97;81.27;97361.88;4971818;28;20199;-85
2022/01/18 06:26:36;;;;;;;11.13;9.23;;;;;;;5.00;81.40;97363.41;4971034;28;20239;-85
2022/01/18 06:29:02;;;;;;;10.90;9.13;;;;;;;4.98;81.47;97368.59;4970081;28;20197;-82
2022/01/18 06:31:29;;;;;;;12.37;9.63;;;;;;;4.87;82.82;97373.56;4970046;28;20196;-85
2022/01/18 06:33:55;;;;;;;11.87;9.50;;;;;;;4.91;82.77;97372.44;4971618;28;20204;-85
2022/01/18 06:36:22;;;;;;;12.70;10.00;;;;;;;4.96;83.76;97377.28;4969061;28;20263;-85
2022/01/18 06:38:50;;;;;;;12.30;10.13;;;;;;;5.01;85.10;97380.31;4969503;28;20220;-85
2022/01/18 06:41:16;;;;;;;13.43;10.63;;;;;;;5.04;83.51;97388.63;4970142;28;20204;-85
2022/01/18 06:43:43;;;;;;;30.47;22.60;;;;;;;5.00;83.34;97394.84;4963873;28;20200;-85
2022/01/18 06:46:09;;;;;;;13.03;11.53;;;;;;;4.99;82.58;97403.44;4970798;28;20196;-84
2022/01/18 06:48:36;;;;;;;12.20;9.80;;;;;;;4.98;82.77;97400.97;4970406;28;20254;-84
2022/01/18 06:51:02;;;;;;;13.20;9.83;;;;;;;5.06;82.32;97403.84;4972080;28;20231;-85
2022/01/18 06:53:32;;;;;;;10.77;9.63;;;;;;;5.09;82.48;97413.84;4971716;28;20781;-85
2022/01/18 06:56:02;;;;;;;11.80;9.77;;;;;;;5.13;81.85;97416.13;4970630;28;20235;-84
2022/01/18 06:58:29;;;;;;;12.07;9.70;;;;;;;5.15;82.02;97416.84;4969736;28;20720;-84
2022/01/18 07:00:55;;;;;;;11.80;9.70;;;;;;;5.06;83.11;97417.41;4971816;28;20247;-85
2022/01/18 07:03:22;;;;;;;11.73;9.10;;;;;;;5.03;83.70;97420.16;4969266;28;20630;-85
2022/01/18 07:05:48;;;;;;;12.97;9.70;;;;;;;5.05;83.12;97428.53;4971108;28;20201;-86
2022/01/18 07:08:15;;;;;;;13.17;10.23;;;;;;;5.00;84.09;97424.66;4971550;28;20238;-86
2022/01/18 07:10:41;;;;;;;11.93;9.77;;;;;;;5.07;83.34;97436.94;4974803;28;20196;-86
2022/01/18 07:13:11;;;;;;;11.43;9.30;;;;;;;5.11;83.06;97433.28;4970515;28;20239;-86
2022/01/18 07:15:37;;;;;;;10.93;9.43;;;;;;;5.14;82.49;97427.16;4974610;28;20243;-86
2022/01/18 07:18:05;;;;;;;12.43;9.80;;;;;;;5.13;82.40;97441.66;4975067;28;20239;-85
2022/01/18 07:20:32;;;;;;;13.83;10.03;;;;;;;5.17;82.06;97440.56;4975546;28;20208;-85
2022/01/18 07:22:58;;;;;;;12.77;9.70;;;;;;;5.11;82.21;97443.50;4975795;28;20208;-85
2022/01/18 07:25:26;;;;;;;11.80;10.10;;;;;;;5.17;81.86;97442.28;4982530;28;20208;-85
2022/01/18 07:27:53;;;;;;;13.23;10.80;;;;;;;5.23;81.42;97441.88;4975293;28;20220;-81
2022/01/18 07:30:20;;;;;;;20.03;13.73;;;;;;;5.27;81.25;97445.88;4974546;28;20204;-83
2022/01/18 07:32:47;;;;;;;14.57;10.77;;;;;;;5.31;80.90;97449.88;4974584;28;20809;-84
2022/01/18 07:35:13;;;;;;;12.40;10.10;;;;;;;5.30;81.12;97448.25;4976703;28;20227;-86
2022/01/18 07:37:40;;;;;;;11.70;9.57;;;;;;;5.34;80.60;97446.31;4975054;28;20243;-85
2022/01/18 07:40:08;;;;;;;11.43;8.90;;;;;;;5.40;80.37;97451.00;4975950;28;20204;-85
2022/01/18 07:42:34;;;;;;;13.03;10.57;;;;;;;5.40;80.60;97459.50;4976229;28;20204;-84
2022/01/18 07:45:01;;;;;;;14.30;10.27;;;;;;;5.43;80.29;97464.41;4974791;28;20637;-85
2022/01/18 07:47:28;;;;;;;9.80;8.60;;;;;;;5.43;79.86;97461.03;4974012;28;20705;-84
2022/01/18 07:49:55;;;;;;;12.73;9.67;;;;;;;5.43;80.46;97472.06;4974699;28;20212;-83
2022/01/18 07:52:21;;;;;;;12.27;10.43;;;;;;;5.44;80.21;97478.00;4973293;28;20204;-82
2022/01/18 07:54:48;;;;;;;13.27;10.57;;;;;;;5.44;80.01;97483.13;4975191;28;20231;-82
2022/01/18 07:57:15;;;;;;;11.07;9.57;;;;;;;5.44;80.33;97481.38;4976485;28;20242;-83
2022/01/18 07:59:42;;;;;;;11.77;9.77;;;;;;;5.41;80.69;97488.41;4974202;28;20632;-82
2022/01/18 08:02:09;;;;;;;12.43;9.93;;;;;;;5.48;80.28;97484.56;4973188;28;20211;-82
2022/01/18 08:04:37;;;;;;;11.07;9.70;;;;;;;5.51;79.88;97482.63;4970141;28;20240;-84
2022/01/18 08:07:04;;;;;;;12.03;9.53;;;;;;;5.53;79.22;97472.31;4972850;28;20224;-83
2022/01/18 08:09:30;;;;;;;11.50;9.00;;;;;;;5.56;79.63;97482.34;4971521;28;20234;-86
2022/01/18 08:11:57;;;;;;;13.60;9.37;;;;;;;5.60;79.02;97482.94;4972600;28;20534;-85
2022/01/18 08:14:26;;;;;;;11.47;9.30;;;;;;;5.59;78.55;97481.31;4971849;28;20236;-86
2022/01/18 08:17:00;;;;;;;12.17;9.40;;;;;;;5.60;78.63;97478.66;4973414;28;20224;-85
2022/01/18 08:19:27;;;;;;;11.80;9.73;;;;;;;5.60;78.35;97478.66;4972551;28;20244;-86
2022/01/18 08:21:55;;;;;;;10.30;8.77;;;;;;;5.61;78.43;97479.47;4973636;28;20255;-86
2022/01/18 08:24:22;;;;;;;10.53;8.87;;;;;;;5.61;79.92;97480.28;4971748;28;20608;-85
2022/01/18 08:26:49;;;;;;;12.33;8.97;;;;;;;5.63;78.79;97488.69;4972477;28;20294;-85
2022/01/18 08:29:15;;;;;;;12.57;8.90;;;;;;;5.65;78.83;97473.25;4972306;28;20211;-86
2022/01/18 08:31:42;;;;;;;12.60;9.50;;;;;;;5.66;77.93;97480.81;4973409;28;20200;-85
2022/01/18 08:34:09;;;;;;;11.87;9.00;;;;;;;5.58;78.08;97472.03;4973523;28;20647;-86
2022/01/18 08:36:36;;;;;;;10.43;8.90;;;;;;;5.60;78.15;97472.72;4973700;28;20228;-86
2022/01/18 08:39:06;;;;;;;9.63;8.53;;;;;;;5.59;78.03;97479.56;4971944;28;20204;-85
2022/01/18 08:41:34;;;;;;;9.80;8.67;;;;;;;5.64;78.03;97479.28;4972687;28;20291;-84
2022/01/18 08:44:01;;;;;;;9.07;7.93;;;;;;;5.69;78.08;97469.59;4971365;28;20325;-85
2022/01/18 08:46:28;;;;;;;10.20;8.17;;;;;;;5.74;77.27;97473.50;4970639;28;20197;-84
2022/01/18 08:48:55;;;;;;;12.13;8.07;;;;;;;5.76;76.92;97479.31;4970582;28;20238;-84
2022/01/18 08:51:21;;;;;;;11.73;8.27;;;;;;;5.82;76.93;97476.34;4973701;28;20211;-84
2022/01/18 08:53:50;;;;;;;11.47;8.10;;;;;;;5.85;76.73;97481.25;4974045;28;20607;-83
2022/01/18 08:56:18;;;;;;;15.03;8.53;;;;;;;5.88;76.63;97480.25;4971395;28;20215;-81
2022/01/18 08:58:45;;;;;;;10.90;8.20;;;;;;;5.89;76.41;97482.75;4971634;28;20216;-83
2022/01/18 09:01:11;;;;;;;11.43;8.13;;;;;;;5.92;75.81;97484.28;4972674;28;20200;-82
2022/01/18 09:03:38;;;;;;;11.03;8.43;;;;;;;5.97;75.72;97481.38;4971966;28;20237;-85
2022/01/18 09:06:07;;;;;;;9.23;7.80;;;;;;;5.95;75.57;97490.94;4972466;28;20211;-85
2022/01/18 09:08:36;;;;;;;12.43;9.07;;;;;;;5.97;75.22;97499.28;4972626;28;20247;-82
2022/01/18 09:11:02;;;;;;;10.87;8.33;;;;;;;5.96;75.62;97490.00;4972737;28;20201;-84
2022/01/18 09:13:30;;;;;;;10.37;8.40;;;;;;;5.97;75.65;97491.63;4972654;28;20238;-85
2022/01/18 09:15:57;;;;;;;12.63;8.57;;;;;;;5.99;75.47;97490.59;4972852;28;20200;-86
2022/01/18 09:18:23;;;;;;;9.50;7.50;;;;;;;6.00;74.86;97499.91;4972401;28;20216;-84
2022/01/18 09:20:50;;;;;;;10.57;7.97;;;;;;;5.99;74.36;97500.00;4973561;28;20215;-85
2022/01/18 09:23:16;;;;;;;13.60;8.03;;;;;;;6.05;74.67;97503.00;4973806;28;20651;-83
2022/01/18 09:25:43;;;;;;;9.23;7.60;;;;;;;6.14;74.27;97507.50;4974906;28;20208;-83
2022/01/18 09:28:10;;;;;;;8.70;7.53;;;;;;;6.17;74.97;97503.91;4973714;28;20223;-84
2022/01/18 09:30:38;;;;;;;10.00;8.00;;;;;;;6.08;74.48;97509.66;4973860;28;20218;-84
2022/01/18 09:33:06;;;;;;;13.70;8.47;;;;;;;6.02;75.45;97512.59;4973569;28;20204;-84
2022/01/18 09:35:33;;;;;;;10.30;8.03;;;;;;;5.98;75.93;97506.88;4973142;28;20216;-84
2022/01/18 09:38:00;;;;;;;12.60;8.20;;;;;;;6.12;75.89;97513.66;4973296;28;20242;-84
2022/01/18 09:40:27;;;;;;;16.50;8.40;;;;;;;6.14;76.60;97510.06;4972551;28;20204;-83
2022/01/18 09:42:57;;;;;;;13.23;8.30;;;;;;;6.26;76.04;97513.53;4972808;28;20584;-83
2022/01/18 09:45:25;;;;;;;10.47;8.47;;;;;;;6.35;75.30;97514.69;4969328;28;20275;-84
2022/01/18 09:47:56;;;;;;;9.67;8.03;;;;;;;6.45;74.89;97513.13;4971239;28;20212;-84
2022/01/18 09:50:28;;;;;;;9.60;8.50;;;;;;;6.44;75.05;97514.88;4972976;28;20249;-85
2022/01/18 09:52:56;;;;;;;11.10;8.30;;;;;;;6.49;74.99;97514.56;4969558;28;20206;-85
2022/01/18 09:55:24;;;;;;;10.97;8.70;;;;;;;6.57;74.65;97515.66;4973275;28;20204;-85
2022/01/18 09:57:51;;;;;;;11.03;8.43;;;;;;;6.49;74.73;97515.38;4970900;28;20228;-85
2022/01/18 10:00:18;;;;;;;11.43;8.70;;;;;;;6.54;74.48;97508.19;4970424;28;20291;-80
2022/01/18 10:02:46;;;;;;;10.30;8.53;;;;;;;6.58;74.63;97504.50;4971331;28;20215;-83
2022/01/18 10:05:24;;;;;;;11.07;8.80;;;;;;;6.68;74.37;97509.00;4971069;28;20228;-85
2022/01/18 10:08:01;;;;;;;10.00;8.17;;;;;;;6.71;73.93;97501.94;4971626;28;20239;-82
2022/01/18 10:10:39;;;;;;;8.97;8.03;;;;;;;6.77;73.75;97498.13;4972096;28;20210;-85
2022/01/18 10:13:07;;;;;;;13.43;8.27;;;;;;;6.78;74.05;97499.75;4972947;28;20243;-85
2022/01/18 10:15:34;;;;;;;10.47;8.93;;;;;;;6.76;74.00;97496.50;4971923;28;20205;-85
2022/01/18 10:18:05;;;;;;;10.70;9.27;;;;;;;6.75;73.74;97495.66;4972459;28;20243;-84
2022/01/18 10:20:47;;;;;;;13.57;9.53;;;;;;;6.76;73.46;97499.88;4972347;28;20280;-85
2022/01/18 10:23:21;;;;;;;11.07;8.90;;;;;;;6.74;73.65;97495.78;4972499;28;20227;-85
2022/01/18 10:25:47;;;;;;;11.40;8.50;;;;;;;6.71;73.61;97485.78;4965318;28;20227;-85
2022/01/18 10:28:28;;;;;;;10.40;8.90;;;;;;;6.70;74.09;97490.06;4972245;28;20228;-85
2022/01/18 10:30:55;;;;;;;12.40;8.63;;;;;;;6.69;74.22;97488.44;4973668;28;20211;-85
2022/01/18 10:33:28;;;;;;;10.97;8.53;;;;;;;6.70;73.81;97490.06;4971482;28;20232;-85
2022/01/18 10:36:10;;;;;;;10.53;7.80;;;;;;;6.73;73.98;97484.75;4972304;28;20214;-85
2022/01/18 10:38:37;;;;;;;10.60;8.53;;;;;;;6.78;74.21;97474.97;4971338;28;20238;-85
2022/01/18 10:41:27;;;;;;;8.63;6.57;;;;;;;6.59;72.31;97474.63;4972391;28;20588;-85
2022/01/18 10:44:08;;;;;;;8.03;6.53;;;;;;;6.59;73.23;97466.94;4970369;28;20228;-85
2022/01/18 10:46:37;;;;;;;7.07;5.90;;;;;;;6.70;72.96;97461.91;4973030;28;20215;-85
2022/01/18 10:49:04;;;;;;;7.60;6.40;;;;;;;6.71;72.42;97460.16;4983040;28;20335;-85
2022/01/18 10:51:35;;;;;;;7.50;6.20;;;;;;;6.75;71.29;97457.28;4976704;28;20708;-85
2022/01/18 10:54:04;;;;;;;7.57;5.73;;;;;;;6.79;71.65;97456.13;4972400;28;20227;-85
2022/01/18 10:56:38;;;;;;;6.77;4.97;;;;;;;6.80;71.43;97444.97;4973365;28;20193;-85
2022/01/18 10:59:06;;;;;;;6.07;4.20;;;;;;;6.82;70.02;97438.00;4976147;28;20705;-85
2022/01/18 11:01:32;;;;;;;5.47;4.53;;;;;;;6.82;69.63;97432.88;4974914;28;20669;-85
2022/01/18 11:04:11;;;;;;;6.63;4.17;;;;;;;6.64;69.41;97438.47;4976406;28;20258;-85
2022/01/18 11:06:39;;;;;;;9.97;4.37;;;;;;;6.89;70.23;97426.41;4974266;28;20299;-86
2022/01/18 11:09:11;;;;;;;4.73;3.57;;;;;;;6.94;68.86;97426.06;4973840;28;20196;-85
2022/01/18 11:11:42;;;;;;;14.57;9.53;;;;;;;7.13;67.22;97423.84;4972705;28;20228;-85
2022/01/18 11:14:09;;;;;;;15.30;12.20;;;;;;;7.28;67.07;97422.75;4974922;28;20235;-85
2022/01/18 11:16:40;;;;;;;9.07;5.37;;;;;;;7.44;67.26;97422.47;4975020;28;20232;-85
2022/01/18 11:19:08;;;;;;;6.37;3.80;;;;;;;7.40;66.25;97405.66;4973859;28;20206;-85
2022/01/18 11:21:35;;;;;;;7.50;3.37;;;;;;;7.39;66.26;97418.59;4973927;28;20207;-85
2022/01/18 11:24:03;;;;;;;4.70;2.63;;;;;;;7.40;64.37;97405.66;4971918;28;20235;-85
2022/01/18 11:26:32;;;;;;;4.30;2.50;;;;;;;7.31;62.34;97401.22;4975085;28;20211;-84
2022/01/18 11:28:59;;;;;;;3.93;2.63;;;;;;;7.22;63.01;97407.00;4974955;28;20764;-84
2022/01/18 11:31:25;;;;;;;5.30;2.43;;;;;;;6.98;62.83;97411.31;4975112;28;20204;-84
2022/01/18 11:33:59;;;;;;;7.27;2.80;;;;;;;6.93;63.84;97401.38;4974583;28;20235;-85
2022/01/18 11:36:30;;;;;;;5.20;2.50;;;;;;;6.79;63.76;97397.25;4974496;28;20488;-85
2022/01/18 11:39:01;;;;;;;4.83;2.70;;;;;;;6.89;64.74;97402.56;4969051;28;20228;-84
2022/01/18 11:41:31;;;;;;;5.50;3.17;;;;;;;7.00;64.48;97409.47;4976615;28;20208;-85
2022/01/18 11:44:10;;;;;;;3.93;2.90;;;;;;;7.04;64.28;97395.53;4976034;28;20227;-85
2022/01/18 11:46:40;;;;;;;5.57;2.97;;;;;;;7.06;63.97;97409.03;4975561;28;20233;-85
2022/01/18 11:49:09;;;;;;;5.53;2.83;;;;;;;7.07;63.66;97400.44;4974857;28;20251;-85
2022/01/18 11:51:37;;;;;;;5.67;2.60;;;;;;;7.11;63.20;97402.66;4975453;28;20211;-85
2022/01/18 11:54:25;;;;;;;5.03;2.77;;;;;;;7.15;63.15;97396.38;4975594;28;20607;-84
2022/01/18 11:56:53;;;;;;;7.57;2.63;;;;;;;7.22;63.14;97404.44;4976039;28;20808;-82
2022/01/18 11:59:21;;;;;;;7.43;2.90;;;;;;;7.23;63.64;97390.72;4974738;28;20605;-83
2022/01/18 12:01:51;;;;;;;5.63;3.00;;;;;;;7.25;63.30;97386.28;4976034;28;20673;-84
2022/01/18 12:05:06;;;;;;;4.93;2.83;;;;;;;7.33;62.78;97394.22;4975905;28;20302;-82
2022/01/18 12:07:59;;;;;;;10.03;3.50;;;;;;;7.38;62.72;97394.72;4915602;29;20785;-84
2022/01/18 12:10:45;;;;;;;4.00;2.70;;;;;;;7.33;61.88;97388.28;4917146;29;20195;-83
2022/01/18 12:13:25;;;;;;;32.27;5.13;;;;;;;7.34;61.95;97377.91;4973659;28;20235;-85
2022/01/18 12:15:55;;;;;;;5.37;3.37;;;;;;;7.40;62.80;97381.78;4975737;28;20194;-85
2022/01/18 12:18:24;;;;;;;8.00;3.50;;;;;;;7.41;62.90;97379.09;4975507;28;20692;-85
2022/01/18 12:20:52;;;;;;;7.07;3.90;;;;;;;7.43;62.72;97382.38;4975590;28;20212;-85
2022/01/18 12:23:21;;;;;;;8.50;3.50;;;;;;;7.49;62.74;97381.94;4975252;28;20224;-84
2022/01/18 12:25:56;;;;;;;6.10;3.60;;;;;;;7.49;63.17;97374.25;4976250;28;20212;-85